createdAt,value
2018-11-13T00:00:58.595Z,994.33
2018-11-13T00:01:58.597Z,994.4
2018-11-13T00:02:58.590Z,994.43
2018-11-13T00:03:58.585Z,994.41
2018-11-13T00:04:58.603Z,994.44
2018-11-13T00:05:58.579Z,994.5
2018-11-13T00:06:58.594Z,994.52
2018-11-13T00:07:58.575Z,994.5
2018-11-13T00:08:58.572Z,994.57
2018-11-13T00:09:58.569Z,994.57
2018-11-13T00:10:58.570Z,994.58
2018-11-13T00:11:58.567Z,994.55
2018-11-13T00:12:58.564Z,994.58
2018-11-13T00:13:58.561Z,994.6
2018-11-13T00:14:58.560Z,994.55
2018-11-13T00:15:58.560Z,994.65
2018-11-13T00:16:58.559Z,994.64
2018-11-13T00:17:58.576Z,994.66
2018-11-13T00:18:58.546Z,994.67
2018-11-13T00:19:58.543Z,994.7
2018-11-13T00:20:58.541Z,994.64
2018-11-13T00:21:58.539Z,994.63
2018-11-13T00:22:58.539Z,994.67
2018-11-13T00:23:58.647Z,994.63
2018-11-13T00:24:58.535Z,994.63
2018-11-13T00:25:58.529Z,994.64
2018-11-13T00:26:58.526Z,994.66
2018-11-13T00:27:58.527Z,994.67
2018-11-13T00:28:58.521Z,994.65
2018-11-13T00:29:58.521Z,994.65
2018-11-13T00:30:58.546Z,994.67
2018-11-13T00:31:58.524Z,994.67
2018-11-13T00:32:58.511Z,994.68
2018-11-13T00:33:58.514Z,994.64
2018-11-13T00:34:58.506Z,994.69
2018-11-13T00:35:58.502Z,994.72
2018-11-13T00:36:58.498Z,994.74
2018-11-13T00:37:58.503Z,994.71
2018-11-13T00:38:58.493Z,994.73
2018-11-13T00:39:58.491Z,994.81
2018-11-13T00:40:58.486Z,994.75
2018-11-13T00:41:58.484Z,994.83
2018-11-13T00:42:58.479Z,994.84
2018-11-13T00:43:58.489Z,994.92
2018-11-13T00:44:58.473Z,994.97
2018-11-13T00:45:58.530Z,994.92
2018-11-13T00:46:58.533Z,994.91
2018-11-13T00:47:58.466Z,994.92
2018-11-13T00:48:58.461Z,994.93
2018-11-13T00:49:58.458Z,994.96
2018-11-13T00:50:58.456Z,994.91
2018-11-13T00:51:58.455Z,994.94
2018-11-13T00:52:58.459Z,994.89
2018-11-13T00:53:58.454Z,994.89
2018-11-13T00:54:58.603Z,994.88
2018-11-13T00:55:58.457Z,994.89
2018-11-13T00:56:58.446Z,994.83
2018-11-13T00:57:58.446Z,994.91
2018-11-13T00:58:58.433Z,994.9
2018-11-13T00:59:58.431Z,994.9
2018-11-13T01:00:58.428Z,994.89
2018-11-13T01:01:58.467Z,994.86
2018-11-13T01:02:58.598Z,994.83
2018-11-13T01:03:58.420Z,994.79
2018-11-13T01:04:58.426Z,994.83
2018-11-13T01:05:58.419Z,994.87
2018-11-13T01:06:58.413Z,994.86
2018-11-13T01:07:58.408Z,994.86
2018-11-13T01:08:58.407Z,994.85
2018-11-13T01:09:58.420Z,994.92
2018-11-13T01:10:58.401Z,994.97
2018-11-13T01:11:58.806Z,995.1
2018-11-13T01:12:58.400Z,995.06
2018-11-13T01:13:58.396Z,995.09
2018-11-13T01:14:58.464Z,995.07
2018-11-13T01:15:58.384Z,995.02
2018-11-13T01:16:58.379Z,995.13
2018-11-13T01:17:58.379Z,995.14
2018-11-13T01:18:58.379Z,995.22
2018-11-13T01:19:58.373Z,995.33
2018-11-13T01:20:58.383Z,995.31
2018-11-13T01:21:58.369Z,995.26
2018-11-13T01:22:58.377Z,995.22
2018-11-13T01:23:58.383Z,995.21
2018-11-13T01:24:58.356Z,995.16
2018-11-13T01:25:58.353Z,995.14
2018-11-13T01:26:58.354Z,995.05
2018-11-13T01:27:58.363Z,995.03
2018-11-13T01:28:58.345Z,995.04
2018-11-13T01:29:58.341Z,995.08
2018-11-13T01:30:58.343Z,995.03
2018-11-13T01:31:58.334Z,995.07
2018-11-13T01:32:58.333Z,995.08
2018-11-13T01:33:58.334Z,995.02
2018-11-13T01:34:58.325Z,995.09
2018-11-13T01:35:58.331Z,995.03
2018-11-13T01:36:58.323Z,995.08
2018-11-13T01:37:58.317Z,995.02
2018-11-13T01:38:58.320Z,995.11
2018-11-13T01:39:58.323Z,995.04
2018-11-13T01:40:58.323Z,995.06
2018-11-13T01:41:58.306Z,995
2018-11-13T01:42:58.301Z,995.08
2018-11-13T01:43:58.301Z,995.02
2018-11-13T01:44:58.295Z,995.06
2018-11-13T01:45:58.326Z,995.01
2018-11-13T01:46:58.289Z,995.02
2018-11-13T01:47:58.301Z,995.1
2018-11-13T01:48:58.538Z,995.12
2018-11-13T01:49:58.280Z,995.03
2018-11-13T01:50:58.282Z,995
2018-11-13T01:51:58.282Z,995.04
2018-11-13T01:52:58.270Z,994.96
2018-11-13T01:53:58.311Z,995.01
2018-11-13T01:54:58.266Z,994.99
2018-11-13T01:55:58.264Z,995.03
2018-11-13T01:56:58.287Z,994.97
2018-11-13T01:57:58.261Z,995
2018-11-13T01:58:58.258Z,994.94
2018-11-13T01:59:58.254Z,994.99
2018-11-13T02:00:58.249Z,995.07
2018-11-13T02:01:58.248Z,995.04
2018-11-13T02:02:58.240Z,995.06
2018-11-13T02:03:58.239Z,995.05
2018-11-13T02:04:58.236Z,995.03
2018-11-13T02:05:58.237Z,995.01
2018-11-13T02:06:58.231Z,994.97
2018-11-13T02:07:58.234Z,994.96
2018-11-13T02:08:58.230Z,994.93
2018-11-13T02:09:58.219Z,994.9
2018-11-13T02:10:58.217Z,994.95
2018-11-13T02:11:58.233Z,995.09
2018-11-13T02:12:58.212Z,995.15
2018-11-13T02:13:58.208Z,995.1
2018-11-13T02:14:58.206Z,995.14
2018-11-13T02:15:58.206Z,995.1
2018-11-13T02:16:58.197Z,995.15
2018-11-13T02:17:58.198Z,995.12
2018-11-13T02:18:58.443Z,995.14
2018-11-13T02:19:58.193Z,995.19
2018-11-13T02:20:58.189Z,995.18
2018-11-13T02:21:58.188Z,995.17
2018-11-13T02:22:58.183Z,995.21
2018-11-13T02:23:58.180Z,995.25
2018-11-13T02:24:58.178Z,995.25
2018-11-13T02:25:58.177Z,995.28
2018-11-13T02:26:58.181Z,995.37
2018-11-13T02:27:58.168Z,995.5
2018-11-13T02:28:58.967Z,995.54
2018-11-13T02:29:58.165Z,995.54
2018-11-13T02:30:58.163Z,995.48
2018-11-13T02:31:58.160Z,995.52
2018-11-13T02:32:58.157Z,995.57
2018-11-13T02:33:58.154Z,995.56
2018-11-13T02:34:58.156Z,995.53
2018-11-13T02:35:58.149Z,995.54
2018-11-13T02:36:58.154Z,995.57
2018-11-13T02:37:58.172Z,995.6
2018-11-13T02:38:58.143Z,995.62
2018-11-13T02:39:58.143Z,995.62
2018-11-13T02:40:58.142Z,995.63
2018-11-13T02:41:58.134Z,995.63
2018-11-13T02:42:58.130Z,995.64
2018-11-13T02:43:58.132Z,995.61
2018-11-13T02:44:58.128Z,995.67
2018-11-13T02:45:58.125Z,995.71
2018-11-13T02:46:58.119Z,995.79
2018-11-13T02:47:58.115Z,995.9
2018-11-13T02:48:58.112Z,995.94
2018-11-13T02:49:58.109Z,995.95
2018-11-13T02:50:58.108Z,995.98
2018-11-13T02:51:58.107Z,996.03
2018-11-13T02:52:58.111Z,996.03
2018-11-13T02:53:58.102Z,996.06
2018-11-13T02:54:58.101Z,996.05
2018-11-13T02:55:58.095Z,996.04
2018-11-13T02:56:58.109Z,996.01
2018-11-13T02:57:58.091Z,996
2018-11-13T02:58:58.090Z,995.96
2018-11-13T02:59:58.093Z,995.99
2018-11-13T03:00:58.082Z,995.98
2018-11-13T03:01:58.084Z,995.99
2018-11-13T03:02:58.077Z,995.99
2018-11-13T03:03:58.078Z,995.98
2018-11-13T03:04:58.073Z,995.98
2018-11-13T03:05:58.071Z,996.01
2018-11-13T03:06:58.071Z,996
2018-11-13T03:07:58.076Z,995.97
2018-11-13T03:08:58.079Z,995.99
2018-11-13T03:09:58.065Z,995.98
2018-11-13T03:10:58.057Z,996.03
2018-11-13T03:11:58.059Z,996.04
2018-11-13T03:12:58.061Z,996
2018-11-13T03:13:58.142Z,996.08
2018-11-13T03:14:58.063Z,996.04
2018-11-13T03:15:58.044Z,996.01
2018-11-13T03:16:58.044Z,996.03
2018-11-13T03:17:58.037Z,996.08
2018-11-13T03:18:58.036Z,996.1
2018-11-13T03:19:58.033Z,996.12
2018-11-13T03:20:58.032Z,996.18
2018-11-13T03:21:58.045Z,996.19
2018-11-13T03:22:58.031Z,996.2
2018-11-13T03:23:58.026Z,996.25
2018-11-13T03:24:58.029Z,996.24
2018-11-13T03:25:58.025Z,996.24
2018-11-13T03:26:58.015Z,996.25
2018-11-13T03:27:58.040Z,996.29
2018-11-13T03:28:58.022Z,996.28
2018-11-13T03:29:58.008Z,996.34
2018-11-13T03:30:58.230Z,996.33
2018-11-13T03:31:58.010Z,996.34
2018-11-13T03:32:58.036Z,996.38
2018-11-13T03:33:58.014Z,996.42
2018-11-13T03:34:58.016Z,996.42
2018-11-13T03:35:57.996Z,996.4
2018-11-13T03:36:57.999Z,996.38
2018-11-13T03:37:57.991Z,996.41
2018-11-13T03:38:57.992Z,996.42
2018-11-13T03:39:57.987Z,996.44
2018-11-13T03:40:57.983Z,996.4
2018-11-13T03:41:57.981Z,996.36
2018-11-13T03:42:57.980Z,996.33
2018-11-13T03:43:57.977Z,996.4
2018-11-13T03:44:57.975Z,996.42
2018-11-13T03:45:57.973Z,996.4
2018-11-13T03:46:57.970Z,996.43
2018-11-13T03:47:57.973Z,996.39
2018-11-13T03:48:57.965Z,996.44
2018-11-13T03:49:57.963Z,996.5
2018-11-13T03:50:57.962Z,996.55
2018-11-13T03:51:57.967Z,996.53
2018-11-13T03:52:57.957Z,996.56
2018-11-13T03:53:57.952Z,996.62
2018-11-13T03:54:57.950Z,996.58
2018-11-13T03:55:57.947Z,996.62
2018-11-13T03:56:57.947Z,996.66
2018-11-13T03:57:57.947Z,996.64
2018-11-13T03:58:57.942Z,996.52
2018-11-13T03:59:57.940Z,996.49
2018-11-13T04:00:57.944Z,996.52
2018-11-13T04:01:57.938Z,996.53
2018-11-13T04:02:57.939Z,996.54
2018-11-13T04:03:57.930Z,996.64
2018-11-13T04:04:57.938Z,996.65
2018-11-13T04:05:57.926Z,996.69
2018-11-13T04:06:57.924Z,996.74
2018-11-13T04:07:57.926Z,996.76
2018-11-13T04:08:57.916Z,996.7
2018-11-13T04:09:57.916Z,996.71
2018-11-13T04:10:57.915Z,996.7
2018-11-13T04:11:57.914Z,996.69
2018-11-13T04:12:57.908Z,996.75
2018-11-13T04:13:57.904Z,996.74
2018-11-13T04:14:57.906Z,996.71
2018-11-13T04:15:57.902Z,996.8
2018-11-13T04:16:57.904Z,996.86
2018-11-13T04:17:57.896Z,996.84
2018-11-13T04:18:57.895Z,996.87
2018-11-13T04:19:57.895Z,996.91
2018-11-13T04:20:57.893Z,996.89
2018-11-13T04:21:57.886Z,996.83
2018-11-13T04:22:57.885Z,996.82
2018-11-13T04:23:57.882Z,996.9
2018-11-13T04:24:57.878Z,996.98
2018-11-13T04:25:57.876Z,997.02
2018-11-13T04:26:57.872Z,996.97
2018-11-13T04:27:57.869Z,996.97
2018-11-13T04:28:57.867Z,997
2018-11-13T04:29:57.865Z,997.04
2018-11-13T04:30:57.863Z,997.15
2018-11-13T04:31:57.863Z,997.14
2018-11-13T04:32:57.868Z,997.01
2018-11-13T04:33:57.859Z,996.97
2018-11-13T04:34:57.852Z,997.03
2018-11-13T04:35:57.851Z,997.06
2018-11-13T04:36:57.858Z,997.05
2018-11-13T04:37:57.852Z,997.09
2018-11-13T04:38:57.847Z,997.19
2018-11-13T04:39:57.848Z,997.23
2018-11-13T04:40:57.838Z,997.12
2018-11-13T04:41:57.836Z,996.98
2018-11-13T04:42:57.849Z,996.95
2018-11-13T04:43:57.834Z,997.1
2018-11-13T04:44:57.832Z,997.13
2018-11-13T04:45:57.826Z,997.05
2018-11-13T04:46:57.822Z,997.04
2018-11-13T04:47:57.829Z,997.06
2018-11-13T04:48:57.814Z,997.09
2018-11-13T04:49:57.814Z,997.1
2018-11-13T04:50:57.818Z,997.14
2018-11-13T04:51:57.815Z,997.09
2018-11-13T04:52:57.809Z,997.05
2018-11-13T04:53:57.805Z,997.05
2018-11-13T04:54:57.802Z,997.1
2018-11-13T04:55:57.802Z,997.1
2018-11-13T04:56:57.799Z,997.13
2018-11-13T04:57:57.796Z,997.14
2018-11-13T04:58:57.791Z,997.09
2018-11-13T04:59:57.788Z,997.08
2018-11-13T05:00:57.789Z,997.11
2018-11-13T05:01:57.790Z,997.19
2018-11-13T05:02:57.866Z,997.21
2018-11-13T05:03:57.777Z,997.16
2018-11-13T05:04:57.810Z,997.15
2018-11-13T05:05:57.773Z,997.15
2018-11-13T05:06:57.774Z,997.15
2018-11-13T05:07:57.784Z,997.07
2018-11-13T05:08:57.776Z,997.13
2018-11-13T05:09:57.792Z,997.17
2018-11-13T05:10:57.769Z,997.18
2018-11-13T05:11:57.769Z,997.22
2018-11-13T05:12:57.769Z,997.26
2018-11-13T05:13:57.770Z,997.29
2018-11-13T05:14:57.751Z,997.32
2018-11-13T05:15:57.750Z,997.31
2018-11-13T05:16:57.752Z,997.28
2018-11-13T05:17:57.741Z,997.3
2018-11-13T05:18:57.744Z,997.32
2018-11-13T05:19:57.736Z,997.38
2018-11-13T05:20:57.753Z,997.32
2018-11-13T05:21:57.734Z,997.29
2018-11-13T05:22:57.737Z,997.27
2018-11-13T05:23:57.728Z,997.32
2018-11-13T05:24:57.723Z,997.33
2018-11-13T05:25:57.740Z,997.26
2018-11-13T05:26:57.721Z,997.34
2018-11-13T05:27:57.717Z,997.41
2018-11-13T05:28:57.715Z,997.45
2018-11-13T05:29:57.713Z,997.49
2018-11-13T05:30:57.718Z,997.54
2018-11-13T05:31:57.717Z,997.61
2018-11-13T05:32:57.702Z,997.55
2018-11-13T05:33:57.707Z,997.5
2018-11-13T05:34:57.701Z,997.52
2018-11-13T05:35:57.696Z,997.57
2018-11-13T05:36:57.698Z,997.59
2018-11-13T05:37:57.692Z,997.63
2018-11-13T05:38:57.684Z,997.63
2018-11-13T05:39:57.685Z,997.6
2018-11-13T05:40:57.681Z,997.6
2018-11-13T05:41:57.679Z,997.59
2018-11-13T05:42:57.675Z,997.63
2018-11-13T05:43:57.680Z,997.65
2018-11-13T05:44:57.669Z,997.65
2018-11-13T05:45:57.669Z,997.68
2018-11-13T05:46:57.745Z,997.65
2018-11-13T05:47:57.660Z,997.75
2018-11-13T05:48:57.668Z,997.77
2018-11-13T05:49:57.658Z,997.83
2018-11-13T05:50:57.658Z,997.88
2018-11-13T05:51:57.655Z,997.9
2018-11-13T05:52:57.646Z,997.9
2018-11-13T05:53:57.695Z,997.95
2018-11-13T05:54:57.647Z,997.91
2018-11-13T05:55:57.657Z,997.93
2018-11-13T05:56:57.638Z,998.01
2018-11-13T05:57:57.637Z,997.98
2018-11-13T05:58:57.630Z,998.04
2018-11-13T05:59:57.749Z,998.06
2018-11-13T06:00:57.643Z,998.11
2018-11-13T06:01:57.628Z,998.05
2018-11-13T06:02:57.617Z,998.06
2018-11-13T06:03:57.612Z,998.02
2018-11-13T06:04:57.612Z,998.06
2018-11-13T06:05:57.613Z,998.09
2018-11-13T06:06:57.604Z,998.17
2018-11-13T06:07:57.605Z,998.2
2018-11-13T06:08:57.605Z,998.23
2018-11-13T06:09:57.602Z,998.22
2018-11-13T06:10:57.593Z,998.21
2018-11-13T06:11:57.592Z,998.32
2018-11-13T06:12:57.598Z,998.4
2018-11-13T06:13:57.635Z,998.43
2018-11-13T06:14:57.589Z,998.44
2018-11-13T06:15:57.581Z,998.45
2018-11-13T06:16:57.581Z,998.51
2018-11-13T06:17:57.578Z,998.62
2018-11-13T06:18:57.571Z,998.68
2018-11-13T06:19:57.567Z,998.68
2018-11-13T06:20:57.570Z,998.64
2018-11-13T06:21:57.581Z,998.67
2018-11-13T06:22:57.570Z,998.64
2018-11-13T06:23:57.558Z,998.64
2018-11-13T06:24:57.603Z,998.7
2018-11-13T06:25:57.572Z,998.72
2018-11-13T06:26:57.547Z,998.78
2018-11-13T06:27:57.545Z,998.79
2018-11-13T06:28:57.540Z,998.84
2018-11-13T06:29:58.337Z,998.82
2018-11-13T06:30:57.532Z,998.79
2018-11-13T06:31:57.530Z,998.82
2018-11-13T06:32:57.528Z,998.78
2018-11-13T06:33:57.522Z,998.8
2018-11-13T06:34:57.520Z,998.74
2018-11-13T06:35:57.517Z,998.76
2018-11-13T06:36:57.516Z,998.73
2018-11-13T06:37:57.512Z,998.73
2018-11-13T06:38:57.567Z,998.79
2018-11-13T06:39:57.503Z,998.85
2018-11-13T06:40:57.498Z,998.85
2018-11-13T06:41:57.498Z,998.82
2018-11-13T06:42:57.502Z,998.85
2018-11-13T06:43:57.493Z,998.89
2018-11-13T06:44:57.487Z,998.92
2018-11-13T06:45:57.484Z,998.94
2018-11-13T06:46:57.483Z,998.95
2018-11-13T06:47:57.476Z,999.01
2018-11-13T06:48:57.492Z,999.03
2018-11-13T06:49:57.485Z,999.09
2018-11-13T06:50:57.467Z,999.11
2018-11-13T06:51:57.466Z,999.13
2018-11-13T06:52:57.459Z,999.12
2018-11-13T06:53:57.460Z,999.12
2018-11-13T06:54:57.456Z,999.12
2018-11-13T06:55:57.455Z,999.17
2018-11-13T06:56:57.447Z,999.19
2018-11-13T06:57:57.444Z,999.18
2018-11-13T06:58:57.444Z,999.2
2018-11-13T06:59:57.441Z,999.22
2018-11-13T07:00:57.436Z,999.32
2018-11-13T07:01:57.434Z,999.35
2018-11-13T07:02:57.436Z,999.43
2018-11-13T07:03:57.427Z,999.47
2018-11-13T07:04:57.466Z,999.45
2018-11-13T07:05:57.420Z,999.52
2018-11-13T07:06:57.425Z,999.48
2018-11-13T07:07:57.428Z,999.49
2018-11-13T07:08:57.416Z,999.57
2018-11-13T07:09:57.415Z,999.5
2018-11-13T07:10:57.462Z,999.55
2018-11-13T07:11:57.402Z,999.51
2018-11-13T07:12:57.412Z,999.49
2018-11-13T07:13:57.397Z,999.46
2018-11-13T07:14:57.393Z,999.41
2018-11-13T07:15:57.404Z,999.39
2018-11-13T07:16:57.395Z,999.44
2018-11-13T07:17:57.401Z,999.45
2018-11-13T07:18:57.382Z,999.52
2018-11-13T07:19:57.379Z,999.61
2018-11-13T07:20:58.328Z,999.61
2018-11-13T07:21:57.375Z,999.56
2018-11-13T07:22:57.370Z,999.56
2018-11-13T07:23:57.369Z,999.54
2018-11-13T07:24:57.369Z,999.51
2018-11-13T07:25:57.362Z,999.55
2018-11-13T07:26:57.426Z,999.53
2018-11-13T07:27:57.421Z,999.54
2018-11-13T07:28:57.358Z,999.55
2018-11-13T07:29:57.349Z,999.55
2018-11-13T07:30:57.349Z,999.54
2018-11-13T07:31:57.348Z,999.6
2018-11-13T07:32:57.353Z,999.63
2018-11-13T07:33:57.337Z,999.76
2018-11-13T07:34:57.337Z,999.75
2018-11-13T07:35:57.332Z,999.69
2018-11-13T07:36:57.343Z,999.7
2018-11-13T07:37:57.329Z,999.74
2018-11-13T07:38:57.326Z,999.76
2018-11-13T07:39:57.319Z,999.77
2018-11-13T07:40:57.421Z,999.8
2018-11-13T07:41:57.319Z,999.89
2018-11-13T07:42:57.305Z,999.89
2018-11-13T07:43:57.307Z,999.88
2018-11-13T07:44:57.301Z,999.9
2018-11-13T07:45:57.299Z,999.93
2018-11-13T07:46:57.383Z,1000
2018-11-13T07:47:57.511Z,1000.12
2018-11-13T07:48:57.289Z,1000.13
2018-11-13T07:49:57.285Z,1000.16
2018-11-13T07:50:57.348Z,1000.15
2018-11-13T07:51:57.279Z,1000.18
2018-11-13T07:52:57.276Z,1000.18
2018-11-13T07:53:57.344Z,1000.2
2018-11-13T07:54:57.266Z,1000.26
2018-11-13T07:55:57.265Z,1000.25
2018-11-13T07:56:57.261Z,1000.22
2018-11-13T07:57:57.263Z,1000.27
2018-11-13T07:58:57.261Z,1000.29
2018-11-13T07:59:57.252Z,1000.27
2018-11-13T08:00:57.251Z,1000.27
2018-11-13T08:01:57.245Z,1000.29
2018-11-13T08:02:57.247Z,1000.26
2018-11-13T08:03:57.242Z,1000.27
2018-11-13T08:04:57.236Z,1000.31
2018-11-13T08:05:57.234Z,1000.37
2018-11-13T08:06:57.230Z,1000.38
2018-11-13T08:07:57.235Z,1000.48
2018-11-13T08:08:57.228Z,1000.48
2018-11-13T08:09:57.231Z,1000.47
2018-11-13T08:10:57.228Z,1000.54
2018-11-13T08:11:57.212Z,1000.57
2018-11-13T08:12:57.347Z,1000.59
2018-11-13T08:13:57.210Z,1000.61
2018-11-13T08:14:57.206Z,1000.63
2018-11-13T08:15:57.202Z,1000.61
2018-11-13T08:16:57.203Z,1000.68
2018-11-13T08:17:57.200Z,1000.71
2018-11-13T08:18:57.239Z,1000.76
2018-11-13T08:19:57.192Z,1000.75
2018-11-13T08:20:57.234Z,1000.71
2018-11-13T08:21:57.258Z,1000.73
2018-11-13T08:22:57.215Z,1000.72
2018-11-13T08:23:57.183Z,1000.78
2018-11-13T08:24:57.184Z,1000.72
2018-11-13T08:25:57.176Z,1000.72
2018-11-13T08:26:57.239Z,1000.7
2018-11-13T08:27:57.198Z,1000.71
2018-11-13T08:28:57.357Z,1000.69
2018-11-13T08:29:57.164Z,1000.72
2018-11-13T08:30:57.160Z,1000.76
2018-11-13T08:31:57.157Z,1000.79
2018-11-13T08:32:57.211Z,1000.76
2018-11-13T08:33:57.149Z,1000.71
2018-11-13T08:34:57.251Z,1000.77
2018-11-13T08:35:57.146Z,1000.78
2018-11-13T08:36:57.141Z,1000.77
2018-11-13T08:37:57.139Z,1000.78
2018-11-13T08:38:57.136Z,1000.79
2018-11-13T08:39:57.131Z,1000.8
2018-11-13T08:40:57.130Z,1000.78
2018-11-13T08:41:57.139Z,1000.85
2018-11-13T08:42:57.123Z,1000.8
2018-11-13T08:43:57.177Z,1000.81
2018-11-13T08:44:57.118Z,1000.72
2018-11-13T08:45:57.116Z,1000.71
2018-11-13T08:46:57.118Z,1000.72
2018-11-13T08:47:57.109Z,1000.61
2018-11-13T08:48:57.103Z,1000.62
2018-11-13T08:49:57.102Z,1000.64
2018-11-13T08:50:57.120Z,1000.69
2018-11-13T08:51:57.096Z,1000.63
2018-11-13T08:52:57.101Z,1000.56
2018-11-13T08:53:57.096Z,1000.56
2018-11-13T08:54:57.087Z,1000.51
2018-11-13T08:55:57.087Z,1000.51
2018-11-13T08:56:57.082Z,1000.47
2018-11-13T08:57:57.077Z,1000.46
2018-11-13T08:58:57.164Z,1000.46
2018-11-13T08:59:57.071Z,1000.55
2018-11-13T09:00:57.069Z,1000.61
2018-11-13T09:01:57.071Z,1000.58
2018-11-13T09:02:57.060Z,1000.54
2018-11-13T09:03:57.059Z,1000.54
2018-11-13T09:04:57.094Z,1000.55
2018-11-13T09:05:57.049Z,1000.55
2018-11-13T09:06:57.046Z,1000.57
2018-11-13T09:07:57.047Z,1000.52
2018-11-13T09:08:57.041Z,1000.57
2018-11-13T09:09:57.038Z,1000.53
2018-11-13T09:10:57.036Z,1000.56
2018-11-13T09:11:57.187Z,1000.62
2018-11-13T09:12:57.029Z,1000.69
2018-11-13T09:13:57.034Z,1000.7
2018-11-13T09:14:57.024Z,1000.64
2018-11-13T09:15:57.024Z,1000.6
2018-11-13T09:16:57.023Z,1000.58
2018-11-13T09:17:57.115Z,1000.7
2018-11-13T09:18:57.086Z,1000.78
2018-11-13T09:19:57.008Z,1000.74
2018-11-13T09:20:57.006Z,1000.72
2018-11-13T09:21:57.004Z,1000.7
2018-11-13T09:22:57.002Z,1000.72
2018-11-13T09:23:56.999Z,1000.64
2018-11-13T09:24:56.995Z,1000.64
2018-11-13T09:25:56.994Z,1000.6
2018-11-13T09:26:56.990Z,1000.54
2018-11-13T09:27:57.004Z,1000.56
2018-11-13T09:28:56.987Z,1000.59
2018-11-13T09:29:57.083Z,1000.63
2018-11-13T09:30:57.272Z,1000.63
2018-11-13T09:31:57.026Z,1000.78
2018-11-13T09:32:57.012Z,1000.86
2018-11-13T09:33:56.969Z,1000.9
2018-11-13T09:34:56.964Z,1000.92
2018-11-13T09:35:56.971Z,1000.93
2018-11-13T09:36:56.969Z,1000.91
2018-11-13T09:37:56.955Z,1000.94
2018-11-13T09:38:56.956Z,1001.01
2018-11-13T09:39:56.953Z,1001.06
2018-11-13T09:40:56.961Z,1001.01
2018-11-13T09:41:56.946Z,1000.98
2018-11-13T09:42:56.961Z,1000.92
2018-11-13T09:43:56.939Z,1000.84
2018-11-13T09:44:57.030Z,1000.82
2018-11-13T09:45:57.043Z,1000.74
2018-11-13T09:46:56.943Z,1000.72
2018-11-13T09:47:56.930Z,1000.63
2018-11-13T09:48:56.926Z,1000.65
2018-11-13T09:49:56.922Z,1000.63
2018-11-13T09:50:56.924Z,1000.65
2018-11-13T09:51:57.222Z,1000.68
2018-11-13T09:52:56.911Z,1000.67
2018-11-13T09:53:56.928Z,1000.72
2018-11-13T09:54:56.909Z,1000.74
2018-11-13T09:55:56.904Z,1000.78
2018-11-13T09:56:56.907Z,1000.9
2018-11-13T09:57:56.907Z,1001.01
2018-11-13T09:58:56.943Z,1001.06
2018-11-13T09:59:56.954Z,1001.08
2018-11-13T10:00:57.187Z,1001.1
2018-11-13T10:01:57.478Z,1001.15
2018-11-13T10:02:57.747Z,1001.27
2018-11-13T10:03:57.650Z,1001.22
2018-11-13T10:04:57.677Z,1001.21
2018-11-13T10:05:56.908Z,1001.16
2018-11-13T10:06:56.910Z,1001.16
2018-11-13T10:07:56.874Z,1001.16
2018-11-13T10:08:56.866Z,1001.2
2018-11-13T10:09:56.866Z,1001.2
2018-11-13T10:10:56.869Z,1001.2
2018-11-13T10:11:56.858Z,1001.13
2018-11-13T10:12:56.860Z,1001.11
2018-11-13T10:13:56.852Z,1001.11
2018-11-13T10:14:56.852Z,1001.06
2018-11-13T10:15:56.854Z,1000.93
2018-11-13T10:16:56.854Z,1001
2018-11-13T10:17:56.958Z,1001.01
2018-11-13T10:18:56.836Z,1001.03
2018-11-13T10:19:56.854Z,1001.06
2018-11-13T10:20:56.840Z,1001.09
2018-11-13T10:21:58.681Z,1001.15
2018-11-13T10:22:56.829Z,1001.22
2018-11-13T10:23:56.823Z,1001.16
2018-11-13T10:24:56.825Z,1001.23
2018-11-13T10:25:56.820Z,1001.28
2018-11-13T10:26:56.859Z,1001.32
2018-11-13T10:27:56.813Z,1001.3
2018-11-13T10:28:56.821Z,1001.27
2018-11-13T10:29:56.868Z,1001.26
2018-11-13T10:30:56.812Z,1001.24
2018-11-13T10:31:56.816Z,1001.18
2018-11-13T10:32:56.832Z,1001.21
2018-11-13T10:33:56.809Z,1001.24
2018-11-13T10:34:56.798Z,1001.23
2018-11-13T10:35:56.800Z,1001.25
2018-11-13T10:36:56.792Z,1001.25
2018-11-13T10:37:56.790Z,1001.3
2018-11-13T10:38:56.787Z,1001.36
2018-11-13T10:39:56.840Z,1001.38
2018-11-13T10:40:56.870Z,1001.34
2018-11-13T10:41:56.782Z,1001.37
2018-11-13T10:42:56.780Z,1001.37
2018-11-13T10:43:56.783Z,1001.35
2018-11-13T10:44:56.774Z,1001.35
2018-11-13T10:45:56.787Z,1001.36
2018-11-13T10:46:56.767Z,1001.34
2018-11-13T10:47:56.771Z,1001.33
2018-11-13T10:48:56.807Z,1001.28
2018-11-13T10:49:56.772Z,1001.26
2018-11-13T10:50:56.781Z,1001.26
2018-11-13T10:51:56.798Z,1001.22
2018-11-13T10:52:56.753Z,1001.29
2018-11-13T10:53:56.748Z,1001.36
2018-11-13T10:54:56.774Z,1001.39
2018-11-13T10:55:56.743Z,1001.48
2018-11-13T10:56:56.746Z,1001.54
2018-11-13T10:57:56.745Z,1001.6
2018-11-13T10:58:56.745Z,1001.62
2018-11-13T10:59:56.737Z,1001.68
2018-11-13T11:00:56.731Z,1001.69
2018-11-13T11:01:56.728Z,1001.62
2018-11-13T11:02:56.846Z,1001.61
2018-11-13T11:03:56.722Z,1001.55
2018-11-13T11:04:56.722Z,1001.59
2018-11-13T11:05:56.719Z,1001.61
2018-11-13T11:06:56.716Z,1001.69
2018-11-13T11:07:56.715Z,1001.76
2018-11-13T11:08:56.712Z,1001.82
2018-11-13T11:09:56.708Z,1001.83
2018-11-13T11:10:56.708Z,1001.83
2018-11-13T11:11:56.712Z,1001.8
2018-11-13T11:12:56.875Z,1001.76
2018-11-13T11:13:56.942Z,1001.64
2018-11-13T11:14:56.708Z,1001.52
2018-11-13T11:15:56.700Z,1001.51
2018-11-13T11:16:56.692Z,1001.49
2018-11-13T11:17:56.700Z,1001.59
2018-11-13T11:18:56.882Z,1001.67
2018-11-13T11:19:56.690Z,1001.67
2018-11-13T11:20:56.686Z,1001.71
2018-11-13T11:21:56.689Z,1001.7
2018-11-13T11:22:56.820Z,1001.73
2018-11-13T11:23:56.753Z,1001.79
2018-11-13T11:24:56.677Z,1001.84
2018-11-13T11:25:56.675Z,1001.8
2018-11-13T11:26:56.670Z,1001.7
2018-11-13T11:27:56.744Z,1001.58
2018-11-13T11:28:56.672Z,1001.58
2018-11-13T11:29:56.663Z,1001.63
2018-11-13T11:30:56.667Z,1001.75
2018-11-13T11:31:56.661Z,1001.74
2018-11-13T11:32:56.659Z,1001.83
2018-11-13T11:33:56.660Z,1001.85
2018-11-13T11:34:56.658Z,1001.84
2018-11-13T11:35:56.656Z,1001.89
2018-11-13T11:36:56.654Z,1001.95
2018-11-13T11:37:56.649Z,1002.05
2018-11-13T11:38:56.831Z,1002.04
2018-11-13T11:39:56.669Z,1002.11
2018-11-13T11:40:56.652Z,1002.08
2018-11-13T11:41:56.651Z,1001.99
2018-11-13T11:42:56.650Z,1002.07
2018-11-13T11:43:56.635Z,1002.12
2018-11-13T11:44:56.636Z,1002.08
2018-11-13T11:45:56.635Z,1002.06
2018-11-13T11:46:56.630Z,1002.06
2018-11-13T11:47:56.627Z,1001.95
2018-11-13T11:48:56.625Z,1001.89
2018-11-13T11:49:56.632Z,1001.81
2018-11-13T11:50:56.624Z,1001.82
2018-11-13T11:51:56.621Z,1001.83
2018-11-13T11:52:56.631Z,1001.82
2018-11-13T11:53:56.732Z,1001.91
2018-11-13T11:54:56.614Z,1002.04
2018-11-13T11:55:56.613Z,1002.05
2018-11-13T11:56:56.608Z,1002.03
2018-11-13T11:57:56.608Z,1002.02
2018-11-13T11:58:56.604Z,1002.03
2018-11-13T11:59:56.601Z,1001.99
2018-11-13T12:00:56.600Z,1001.94
2018-11-13T12:01:56.598Z,1001.95
2018-11-13T12:02:56.595Z,1001.9
2018-11-13T12:03:56.593Z,1001.9
2018-11-13T12:04:56.590Z,1001.93
2018-11-13T12:05:56.609Z,1002
2018-11-13T12:06:56.594Z,1002.09
2018-11-13T12:07:56.595Z,1002.16
2018-11-13T12:08:56.583Z,1002.16
2018-11-13T12:09:56.580Z,1002.13
2018-11-13T12:10:56.592Z,1002.15
2018-11-13T12:11:56.577Z,1002.13
2018-11-13T12:12:56.571Z,1002.08
2018-11-13T12:13:56.569Z,1002.08
2018-11-13T12:14:56.570Z,1002.18
2018-11-13T12:15:56.564Z,1002.15
2018-11-13T12:16:56.564Z,1002.15
2018-11-13T12:17:56.566Z,1002.12
2018-11-13T12:18:56.595Z,1002.07
2018-11-13T12:19:56.564Z,1002.17
2018-11-13T12:20:56.570Z,1002.13
2018-11-13T12:21:56.553Z,1002.14
2018-11-13T12:22:56.654Z,1002.16